Flight Track Log - Related Links

Times and Time Zones

All times are in EST time to prevent confusion due to time zone crossing. See the AAY860 flight status page for this flight to view local times or setup timezone preferences in your user account.


Time Position Orientation Groundspeed Altitude Reporting Facility
EST Latitude Longitude Course Direction KTS MPH feet Rate Location/Type
Wed 10:19:28 AM 35.9153 -83.9244 North 235 270 5,600  Level Indianapolis Center
Wed 10:20:22 AM 35.9811 -83.9156 North 244 281 8,200 2,632 Climbing Atlanta Center
Wed 10:21:22 AM 36.0583 -83.9181 359° North 264 304 10,600 2,100 Climbing Atlanta Center
Wed 10:22:22 AM 36.1522 -83.9308 354° North 293 337 12,400 2,200 Climbing Atlanta Center
Wed 10:23:22 AM 36.2481 -83.9461 353° North 324 373 15,000 2,550 Climbing Atlanta Center
Wed 10:24:22 AM 36.3481 -83.9639 352° North 353 406 17,500 2,130 Climbing Atlanta Center
Wed 10:25:40 AM 36.4669 -83.9750 356° North 365 420 19,900 1,899 Climbing Indianapolis Center
Wed 10:26:41 AM 36.5842 -84.0153 345° North 375 432 21,900 1,024 Climbing Indianapolis Center
Wed 10:27:43 AM 36.6831 -84.0617 339° North 380 437 22,000 48 Climbing Indianapolis Center
Wed 10:28:45 AM 36.7819 -84.1094 339° North 380 437 22,000 -387 Level Indianapolis Center
Wed 10:29:47 AM 36.8814 -84.1558 340° North 380 437 21,200 -919 Descending Indianapolis Center
Wed 10:30:49 AM 36.9794 -84.2019 339° North 379 436 20,100 -1,306 Descending Indianapolis Center
Wed 10:31:51 AM 37.0786 -84.2369 344° North 374 430 18,500 -1,805 Descending Indianapolis Center
Wed 10:32:52 AM 37.1956 -84.2661 349° North 369 425 16,400 -2,146 Descending Indianapolis Center
Wed 10:33:54 AM 37.2903 -84.2931 347° North 357 411 14,100 -2,032 Descending Indianapolis Center
Wed 10:34:56 AM 37.3875 -84.3161 349° North 357 411 12,200 -1,500 Descending Indianapolis Center
Wed 10:35:58 AM 37.4772 -84.3403 348° North 338 389 11,000 -1,108 Descending Indianapolis Center
Wed 10:36:01 AM 37.4872 -84.3436 345° North 327 376 11,000 -581 Level Indianapolis Center
Wed 10:37:00 AM 37.5525 -84.3814 335° Northwest 299 344 10,400 -942 Descending Indianapolis Center
Wed 10:38:02 AM 37.6108 -84.4436 320° Northwest 277 319 9,100 -1,452 Descending Indianapolis Center
Wed 10:39:04 AM 37.6672 -84.5033 320° Northwest 269 310 7,400 -1,750 Descending Indianapolis Center
Wed 10:39:38 AM 37.7078 -84.5464 320° Northwest 264 304 6,300 -1,770 Descending Indianapolis Center
Wed 10:40:05 AM 37.7322 -84.5739 318° Northwest 266 306 5,600 -1,348 Descending Indianapolis Center
Wed 10:41:07 AM 37.7675 -84.6353 306° West 260 299 4,300 -774 Descending Indianapolis Center
Wed 10:42:09 AM 37.7883 -84.7272 286° West 240 276 4,000 -677 Descending Indianapolis Center
Wed 10:43:11 AM 37.8056 -84.7956 288° West 218 251 2,900 -1,011 Descending Indianapolis Center
Wed 10:43:38 AM 37.8378 -84.8139 336° Northwest 219 252 2,500 -387 Descending Indianapolis Center
Wed 10:44:13 AM 37.8581 -84.8033 22° Northeast 208 239 2,500  Level Indianapolis Center
Wed 10:45:15 AM 37.8928 -84.7647 41° Northeast 183 211 2,500  Level Indianapolis Center
Wed 10:46:17 AM 37.9311 -84.7231 41° Northeast 165 190 2,500  Level Indianapolis Center
Wed 10:47:18 AM 37.9625 -84.6881 41° Northeast 159 183 2,500 -170 Level Indianapolis Center
Wed 10:48:03 AM 37.9844 -84.6614 44° Northeast 144 166 2,200 -484 Descending Indianapolis Center
Wed 10:48:20 AM 37.9922 -84.6542 36° Northeast 154 177 2,000 -380 Descending Indianapolis Center
Wed 10:49:22 AM 38.0269 -84.6172 40° Northeast 153 176 1,700 -290 Descending Indianapolis Center

Login

Don't have an account? Register now (free) for customized features, flight alerts, and more!